sensor_id;sensor_type;location;lat;lon;timestamp;P1;durP1;ratioP1;P2;durP2;ratioP2
30378;SDS011;17168;49.164;9.060;2022-08-19T00:00:41;14.18;;;12.68;;
30378;SDS011;17168;49.164;9.060;2022-08-19T00:03:13;14.10;;;12.60;;
30378;SDS011;17168;49.164;9.060;2022-08-19T00:08:17;14.50;;;13.00;;
30378;SDS011;17168;49.164;9.060;2022-08-19T00:10:48;15.52;;;13.88;;
30378;SDS011;17168;49.164;9.060;2022-08-19T00:13:21;16.10;;;14.40;;
30378;SDS011;17168;49.164;9.060;2022-08-19T00:15:53;15.48;;;13.85;;
30378;SDS011;17168;49.164;9.060;2022-08-19T00:18:25;14.55;;;13.10;;
30378;SDS011;17168;49.164;9.060;2022-08-19T00:20:57;14.98;;;13.48;;
30378;SDS011;17168;49.164;9.060;2022-08-19T00:23:30;18.48;;;13.85;;
30378;SDS011;17168;49.164;9.060;2022-08-19T00:26:05;14.65;;;13.07;;
30378;SDS011;17168;49.164;9.060;2022-08-19T00:28:40;17.83;;;15.13;;
30378;SDS011;17168;49.164;9.060;2022-08-19T00:31:12;16.10;;;13.05;;
30378;SDS011;17168;49.164;9.060;2022-08-19T00:33:44;15.52;;;13.88;;
30378;SDS011;17168;49.164;9.060;2022-08-19T00:36:16;16.73;;;14.23;;
30378;SDS011;17168;49.164;9.060;2022-08-19T00:38:48;17.58;;;14.90;;
30378;SDS011;17168;49.164;9.060;2022-08-19T00:41:21;20.52;;;14.82;;
30378;SDS011;17168;49.164;9.060;2022-08-19T00:43:59;16.05;;;14.25;;
30378;SDS011;17168;49.164;9.060;2022-08-19T00:46:33;17.05;;;14.25;;
30378;SDS011;17168;49.164;9.060;2022-08-19T00:49:10;18.77;;;15.27;;
30378;SDS011;17168;49.164;9.060;2022-08-19T00:51:47;16.08;;;14.43;;
30378;SDS011;17168;49.164;9.060;2022-08-19T00:54:24;15.50;;;13.90;;
30378;SDS011;17168;49.164;9.060;2022-08-19T00:57:01;15.63;;;14.00;;
30378;SDS011;17168;49.164;9.060;2022-08-19T01:07:36;19.83;;;15.27;;
30378;SDS011;17168;49.164;9.060;2022-08-19T01:10:10;18.58;;;15.38;;
30378;SDS011;17168;49.164;9.060;2022-08-19T01:12:45;19.52;;;15.23;;
30378;SDS011;17168;49.164;9.060;2022-08-19T01:15:20;17.45;;;15.25;;
30378;SDS011;17168;49.164;9.060;2022-08-19T01:17:55;17.48;;;14.35;;
30378;SDS011;17168;49.164;9.060;2022-08-19T01:20:30;18.30;;;15.02;;
30378;SDS011;17168;49.164;9.060;2022-08-19T01:23:04;20.10;;;15.45;;
30378;SDS011;17168;49.164;9.060;2022-08-19T01:25:38;17.83;;;15.13;;
30378;SDS011;17168;49.164;9.060;2022-08-19T01:28:16;16.48;;;14.35;;
30378;SDS011;17168;49.164;9.060;2022-08-19T01:31:04;18.60;;;15.35;;
30378;SDS011;17168;49.164;9.060;2022-08-19T01:33:38;18.42;;;14.68;;
30378;SDS011;17168;49.164;9.060;2022-08-19T01:36:14;18.85;;;15.52;;
30378;SDS011;17168;49.164;9.060;2022-08-19T01:38:54;19.87;;;15.47;;
30378;SDS011;17168;49.164;9.060;2022-08-19T01:41:26;18.20;;;15.23;;
30378;SDS011;17168;49.164;9.060;2022-08-19T01:43:58;18.08;;;14.43;;
30378;SDS011;17168;49.164;9.060;2022-08-19T01:46:48;19.20;;;14.60;;
30378;SDS011;17168;49.164;9.060;2022-08-19T01:49:21;17.75;;;14.40;;
30378;SDS011;17168;49.164;9.060;2022-08-19T01:51:56;18.88;;;14.40;;
30378;SDS011;17168;49.164;9.060;2022-08-19T01:54:29;21.13;;;15.13;;
30378;SDS011;17168;49.164;9.060;2022-08-19T01:57:02;18.40;;;15.20;;
30378;SDS011;17168;49.164;9.060;2022-08-19T01:59:37;17.52;;;14.85;;
30378;SDS011;17168;49.164;9.060;2022-08-19T02:02:11;23.52;;;15.00;;
30378;SDS011;17168;49.164;9.060;2022-08-19T02:04:43;20.42;;;15.63;;
30378;SDS011;17168;49.164;9.060;2022-08-19T02:07:18;20.15;;;15.88;;
30378;SDS011;17168;49.164;9.060;2022-08-19T02:09:51;19.80;;;15.65;;
30378;SDS011;17168;49.164;9.060;2022-08-19T02:12:23;22.67;;;15.65;;
30378;SDS011;17168;49.164;9.060;2022-08-19T02:14:55;21.73;;;15.90;;
30378;SDS011;17168;49.164;9.060;2022-08-19T02:17:27;20.80;;;15.10;;
30378;SDS011;17168;49.164;9.060;2022-08-19T02:19:59;20.98;;;15.70;;
30378;SDS011;17168;49.164;9.060;2022-08-19T02:22:32;19.52;;;15.70;;
30378;SDS011;17168;49.164;9.060;2022-08-19T02:25:06;20.70;;;15.18;;
30378;SDS011;17168;49.164;9.060;2022-08-19T02:27:38;22.95;;;16.30;;
30378;SDS011;17168;49.164;9.060;2022-08-19T02:30:12;22.42;;;15.43;;
30378;SDS011;17168;49.164;9.060;2022-08-19T02:32:46;19.63;;;14.85;;
30378;SDS011;17168;49.164;9.060;2022-08-19T02:35:19;21.38;;;17.13;;
30378;SDS011;17168;49.164;9.060;2022-08-19T02:37:51;20.92;;;15.57;;
30378;SDS011;17168;49.164;9.060;2022-08-19T02:40:48;19.27;;;15.32;;
30378;SDS011;17168;49.164;9.060;2022-08-19T02:43:21;19.15;;;15.57;;
30378;SDS011;17168;49.164;9.060;2022-08-19T02:45:54;21.85;;;16.83;;
30378;SDS011;17168;49.164;9.060;2022-08-19T02:48:26;22.23;;;16.30;;
30378;SDS011;17168;49.164;9.060;2022-08-19T02:50:58;22.17;;;17.08;;
30378;SDS011;17168;49.164;9.060;2022-08-19T02:53:30;22.05;;;17.02;;
30378;SDS011;17168;49.164;9.060;2022-08-19T02:56:07;23.13;;;17.30;;
30378;SDS011;17168;49.164;9.060;2022-08-19T02:58:39;21.25;;;16.60;;
30378;SDS011;17168;49.164;9.060;2022-08-19T03:01:18;21.10;;;16.73;;
30378;SDS011;17168;49.164;9.060;2022-08-19T03:03:51;21.90;;;17.15;;
30378;SDS011;17168;49.164;9.060;2022-08-19T03:06:23;22.02;;;16.42;;
30378;SDS011;17168;49.164;9.060;2022-08-19T03:08:55;22.40;;;17.30;;
30378;SDS011;17168;49.164;9.060;2022-08-19T03:11:29;22.20;;;17.42;;
30378;SDS011;17168;49.164;9.060;2022-08-19T03:14:03;24.13;;;17.85;;
30378;SDS011;17168;49.164;9.060;2022-08-19T03:16:40;20.50;;;16.15;;
30378;SDS011;17168;49.164;9.060;2022-08-19T03:19:15;25.52;;;17.45;;
30378;SDS011;17168;49.164;9.060;2022-08-19T03:21:48;22.42;;;16.83;;
30378;SDS011;17168;49.164;9.060;2022-08-19T03:24:20;23.95;;;17.80;;
30378;SDS011;17168;49.164;9.060;2022-08-19T03:26:54;24.48;;;17.85;;
30378;SDS011;17168;49.164;9.060;2022-08-19T03:29:29;26.30;;;17.33;;
30378;SDS011;17168;49.164;9.060;2022-08-19T03:32:03;25.48;;;17.70;;
30378;SDS011;17168;49.164;9.060;2022-08-19T03:34:37;22.98;;;17.65;;
30378;SDS011;17168;49.164;9.060;2022-08-19T03:37:10;21.98;;;17.10;;
30378;SDS011;17168;49.164;9.060;2022-08-19T03:39:45;21.55;;;17.00;;
30378;SDS011;17168;49.164;9.060;2022-08-19T03:42:18;22.95;;;17.52;;
30378;SDS011;17168;49.164;9.060;2022-08-19T03:45:10;25.23;;;19.02;;
30378;SDS011;17168;49.164;9.060;2022-08-19T03:47:42;24.98;;;18.00;;
30378;SDS011;17168;49.164;9.060;2022-08-19T03:50:14;22.50;;;17.75;;
30378;SDS011;17168;49.164;9.060;2022-08-19T03:52:47;24.00;;;17.30;;
30378;SDS011;17168;49.164;9.060;2022-08-19T03:55:21;26.10;;;17.35;;
30378;SDS011;17168;49.164;9.060;2022-08-19T03:57:54;23.27;;;16.85;;
30378;SDS011;17168;49.164;9.060;2022-08-19T05:02:14;25.77;;;19.00;;
30378;SDS011;17168;49.164;9.060;2022-08-19T05:04:46;28.25;;;19.00;;
30378;SDS011;17168;49.164;9.060;2022-08-19T07:46:41;26.95;;;18.15;;
30378;SDS011;17168;49.164;9.060;2022-08-19T07:49:19;22.05;;;16.58;;
30378;SDS011;17168;49.164;9.060;2022-08-19T07:51:53;21.52;;;16.33;;
30378;SDS011;17168;49.164;9.060;2022-08-19T07:54:27;21.80;;;16.75;;
30378;SDS011;17168;49.164;9.060;2022-08-19T07:57:02;24.48;;;16.83;;
30378;SDS011;17168;49.164;9.060;2022-08-19T07:59:34;19.95;;;16.20;;
30378;SDS011;17168;49.164;9.060;2022-08-19T08:02:07;21.48;;;15.60;;
30378;SDS011;17168;49.164;9.060;2022-08-19T08:04:41;21.30;;;15.45;;
30378;SDS011;17168;49.164;9.060;2022-08-19T08:07:31;19.38;;;15.02;;
30378;SDS011;17168;49.164;9.060;2022-08-19T08:10:21;26.00;;;16.05;;
30378;SDS011;17168;49.164;9.060;2022-08-19T08:12:54;21.05;;;15.43;;
30378;SDS011;17168;49.164;9.060;2022-08-19T08:15:39;19.02;;;14.38;;
30378;SDS011;17168;49.164;9.060;2022-08-19T08:18:13;22.85;;;14.52;;
30378;SDS011;17168;49.164;9.060;2022-08-19T08:20:47;19.50;;;13.48;;
30378;SDS011;17168;49.164;9.060;2022-08-19T08:25:54;16.00;;;12.90;;
30378;SDS011;17168;49.164;9.060;2022-08-19T08:28:28;18.45;;;13.48;;
30378;SDS011;17168;49.164;9.060;2022-08-19T08:31:00;14.82;;;12.50;;
30378;SDS011;17168;49.164;9.060;2022-08-19T08:33:39;16.65;;;12.25;;
30378;SDS011;17168;49.164;9.060;2022-08-19T08:36:14;16.33;;;11.20;;
30378;SDS011;17168;49.164;9.060;2022-08-19T08:41:19;15.68;;;12.35;;
30378;SDS011;17168;49.164;9.060;2022-08-19T08:43:59;15.50;;;10.80;;
30378;SDS011;17168;49.164;9.060;2022-08-19T08:46:35;16.83;;;11.55;;
30378;SDS011;17168;49.164;9.060;2022-08-19T08:49:13;14.30;;;11.52;;
30378;SDS011;17168;49.164;9.060;2022-08-19T08:51:57;12.13;;;10.82;;
30378;SDS011;17168;49.164;9.060;2022-08-19T08:54:34;14.45;;;10.00;;
30378;SDS011;17168;49.164;9.060;2022-08-19T08:57:10;14.10;;;11.02;;
30378;SDS011;17168;49.164;9.060;2022-08-19T08:59:45;16.67;;;11.20;;
30378;SDS011;17168;49.164;9.060;2022-08-19T09:04:54;12.45;;;10.02;;
30378;SDS011;17168;49.164;9.060;2022-08-19T09:07:34;12.52;;;10.15;;
30378;SDS011;17168;49.164;9.060;2022-08-19T09:12:57;17.05;;;11.15;;
30378;SDS011;17168;49.164;9.060;2022-08-19T09:20:50;12.17;;;9.33;;
30378;SDS011;17168;49.164;9.060;2022-08-19T09:23:23;13.37;;;10.53;;
30378;SDS011;17168;49.164;9.060;2022-08-19T09:25:57;12.40;;;8.63;;
30378;SDS011;17168;49.164;9.060;2022-08-19T09:28:29;15.15;;;9.13;;
30378;SDS011;17168;49.164;9.060;2022-08-19T09:31:02;11.95;;;8.80;;
30378;SDS011;17168;49.164;9.060;2022-08-19T09:33:34;10.25;;;7.97;;
30378;SDS011;17168;49.164;9.060;2022-08-19T09:36:07;10.75;;;8.10;;
30378;SDS011;17168;49.164;9.060;2022-08-19T09:38:41;9.65;;;7.43;;
30378;SDS011;17168;49.164;9.060;2022-08-19T09:41:15;12.90;;;7.28;;
30378;SDS011;17168;49.164;9.060;2022-08-19T09:43:49;9.20;;;6.97;;
30378;SDS011;17168;49.164;9.060;2022-08-19T09:46:27;12.27;;;6.75;;
30378;SDS011;17168;49.164;9.060;2022-08-19T09:49:00;8.45;;;6.25;;
30378;SDS011;17168;49.164;9.060;2022-08-19T09:51:36;9.48;;;7.03;;
30378;SDS011;17168;49.164;9.060;2022-08-19T09:54:11;8.55;;;6.55;;
30378;SDS011;17168;49.164;9.060;2022-08-19T09:59:15;9.25;;;6.93;;
30378;SDS011;17168;49.164;9.060;2022-08-19T10:01:47;8.35;;;7.10;;
30378;SDS011;17168;49.164;9.060;2022-08-19T10:04:19;9.60;;;7.40;;
30378;SDS011;17168;49.164;9.060;2022-08-19T10:07:14;13.07;;;7.63;;
30378;SDS011;17168;49.164;9.060;2022-08-19T10:09:49;10.55;;;8.07;;
30378;SDS011;17168;49.164;9.060;2022-08-19T10:14:53;10.00;;;7.43;;
30378;SDS011;17168;49.164;9.060;2022-08-19T10:17:25;9.95;;;7.45;;
30378;SDS011;17168;49.164;9.060;2022-08-19T10:20:02;11.40;;;7.80;;
30378;SDS011;17168;49.164;9.060;2022-08-19T10:22:35;11.25;;;7.45;;
30378;SDS011;17168;49.164;9.060;2022-08-19T10:25:09;16.40;;;7.50;;
30378;SDS011;17168;49.164;9.060;2022-08-19T10:27:42;10.23;;;7.22;;
30378;SDS011;17168;49.164;9.060;2022-08-19T10:30:21;10.02;;;7.13;;
30378;SDS011;17168;49.164;9.060;2022-08-19T10:32:55;7.55;;;6.10;;
30378;SDS011;17168;49.164;9.060;2022-08-19T10:35:27;9.63;;;8.38;;
30378;SDS011;17168;49.164;9.060;2022-08-19T10:38:00;9.25;;;6.32;;
30378;SDS011;17168;49.164;9.060;2022-08-19T10:40:35;8.30;;;5.53;;
30378;SDS011;17168;49.164;9.060;2022-08-19T10:43:06;5.72;;;5.20;;
30378;SDS011;17168;49.164;9.060;2022-08-19T10:45:38;6.80;;;5.38;;
30378;SDS011;17168;49.164;9.060;2022-08-19T10:48:22;6.47;;;5.22;;
30378;SDS011;17168;49.164;9.060;2022-08-19T10:50:54;6.05;;;5.20;;
30378;SDS011;17168;49.164;9.060;2022-08-19T10:53:53;7.32;;;4.82;;
30378;SDS011;17168;49.164;9.060;2022-08-19T10:56:28;6.18;;;4.60;;
30378;SDS011;17168;49.164;9.060;2022-08-19T10:59:19;5.53;;;4.63;;
30378;SDS011;17168;49.164;9.060;2022-08-19T11:01:58;6.97;;;4.47;;
30378;SDS011;17168;49.164;9.060;2022-08-19T11:04:31;7.65;;;5.13;;
30378;SDS011;17168;49.164;9.060;2022-08-19T11:07:06;10.00;;;4.75;;
30378;SDS011;17168;49.164;9.060;2022-08-19T11:09:39;6.53;;;4.72;;
30378;SDS011;17168;49.164;9.060;2022-08-19T11:12:14;7.45;;;5.55;;
30378;SDS011;17168;49.164;9.060;2022-08-19T11:14:46;6.30;;;4.90;;
30378;SDS011;17168;49.164;9.060;2022-08-19T11:17:20;6.45;;;5.45;;
30378;SDS011;17168;49.164;9.060;2022-08-19T11:19:54;5.75;;;5.25;;
30378;SDS011;17168;49.164;9.060;2022-08-19T11:22:26;5.68;;;5.03;;
30378;SDS011;17168;49.164;9.060;2022-08-19T11:25:11;6.07;;;5.32;;
30378;SDS011;17168;49.164;9.060;2022-08-19T11:27:44;7.20;;;5.35;;
30378;SDS011;17168;49.164;9.060;2022-08-19T11:30:18;7.03;;;5.80;;
30378;SDS011;17168;49.164;9.060;2022-08-19T11:32:49;6.68;;;5.32;;
30378;SDS011;17168;49.164;9.060;2022-08-19T11:35:21;6.45;;;4.90;;
30378;SDS011;17168;49.164;9.060;2022-08-19T11:37:54;8.82;;;5.43;;
30378;SDS011;17168;49.164;9.060;2022-08-19T11:40:28;6.65;;;5.55;;
30378;SDS011;17168;49.164;9.060;2022-08-19T11:43:02;8.32;;;5.50;;
30378;SDS011;17168;49.164;9.060;2022-08-19T11:45:33;7.07;;;6.00;;
30378;SDS011;17168;49.164;9.060;2022-08-19T11:48:06;8.90;;;5.93;;
30378;SDS011;17168;49.164;9.060;2022-08-19T11:50:38;7.28;;;5.60;;
30378;SDS011;17168;49.164;9.060;2022-08-19T11:53:13;7.20;;;5.78;;
30378;SDS011;17168;49.164;9.060;2022-08-19T11:55:44;6.68;;;5.80;;
30378;SDS011;17168;49.164;9.060;2022-08-19T11:58:20;5.90;;;5.30;;
30378;SDS011;17168;49.164;9.060;2022-08-19T12:03:23;11.05;;;6.88;;
30378;SDS011;17168;49.164;9.060;2022-08-19T12:05:55;9.47;;;5.83;;
30378;SDS011;17168;49.164;9.060;2022-08-19T12:08:28;7.70;;;6.38;;
30378;SDS011;17168;49.164;9.060;2022-08-19T12:10:59;8.52;;;5.70;;
30378;SDS011;17168;49.164;9.060;2022-08-19T12:13:35;7.93;;;5.30;;
30378;SDS011;17168;49.164;9.060;2022-08-19T12:16:08;7.65;;;5.55;;
30378;SDS011;17168;49.164;9.060;2022-08-19T12:18:43;6.72;;;6.07;;
30378;SDS011;17168;49.164;9.060;2022-08-19T12:21:20;8.90;;;6.03;;
30378;SDS011;17168;49.164;9.060;2022-08-19T12:23:53;6.00;;;5.45;;
30378;SDS011;17168;49.164;9.060;2022-08-19T12:26:27;7.70;;;5.60;;
30378;SDS011;17168;49.164;9.060;2022-08-19T12:29:01;6.97;;;5.47;;
30378;SDS011;17168;49.164;9.060;2022-08-19T12:31:33;6.22;;;5.25;;
30378;SDS011;17168;49.164;9.060;2022-08-19T12:34:05;10.95;;;5.65;;
30378;SDS011;17168;49.164;9.060;2022-08-19T12:36:39;5.53;;;5.03;;
30378;SDS011;17168;49.164;9.060;2022-08-19T12:39:11;5.40;;;4.88;;
30378;SDS011;17168;49.164;9.060;2022-08-19T12:41:43;5.90;;;5.30;;
30378;SDS011;17168;49.164;9.060;2022-08-19T12:44:26;5.85;;;4.65;;
30378;SDS011;17168;49.164;9.060;2022-08-19T12:47:02;7.63;;;5.15;;
30378;SDS011;17168;49.164;9.060;2022-08-19T12:49:37;7.50;;;4.68;;
30378;SDS011;17168;49.164;9.060;2022-08-19T12:52:26;6.38;;;4.38;;
30378;SDS011;17168;49.164;9.060;2022-08-19T12:54:58;5.75;;;5.15;;
30378;SDS011;17168;49.164;9.060;2022-08-19T12:57:30;5.93;;;4.60;;
30378;SDS011;17168;49.164;9.060;2022-08-19T13:00:07;5.70;;;4.78;;
30378;SDS011;17168;49.164;9.060;2022-08-19T13:02:45;5.13;;;4.68;;
30378;SDS011;17168;49.164;9.060;2022-08-19T13:05:21;7.45;;;4.70;;
30378;SDS011;17168;49.164;9.060;2022-08-19T13:07:57;5.35;;;4.78;;
30378;SDS011;17168;49.164;9.060;2022-08-19T13:10:31;10.02;;;4.80;;
30378;SDS011;17168;49.164;9.060;2022-08-19T13:13:06;6.47;;;4.93;;
30378;SDS011;17168;49.164;9.060;2022-08-19T13:15:42;7.55;;;5.30;;
30378;SDS011;17168;49.164;9.060;2022-08-19T13:18:16;6.82;;;5.80;;
30378;SDS011;17168;49.164;9.060;2022-08-19T13:20:47;8.23;;;5.30;;
30378;SDS011;17168;49.164;9.060;2022-08-19T13:23:23;7.95;;;5.72;;
30378;SDS011;17168;49.164;9.060;2022-08-19T13:25:55;9.60;;;5.47;;
30378;SDS011;17168;49.164;9.060;2022-08-19T13:28:28;9.27;;;5.32;;
30378;SDS011;17168;49.164;9.060;2022-08-19T13:31:22;8.18;;;5.07;;
30378;SDS011;17168;49.164;9.060;2022-08-19T13:34:14;7.82;;;5.00;;
30378;SDS011;17168;49.164;9.060;2022-08-19T13:36:47;6.30;;;5.43;;
30378;SDS011;17168;49.164;9.060;2022-08-19T13:39:19;6.22;;;5.63;;
30378;SDS011;17168;49.164;9.060;2022-08-19T13:41:54;7.18;;;5.85;;
30378;SDS011;17168;49.164;9.060;2022-08-19T13:44:27;6.30;;;5.70;;
30378;SDS011;17168;49.164;9.060;2022-08-19T13:47:02;9.10;;;5.90;;
30378;SDS011;17168;49.164;9.060;2022-08-19T13:49:37;7.20;;;6.40;;
30378;SDS011;17168;49.164;9.060;2022-08-19T13:52:09;9.18;;;6.25;;
30378;SDS011;17168;49.164;9.060;2022-08-19T13:54:41;6.25;;;5.65;;
30378;SDS011;17168;49.164;9.060;2022-08-19T13:57:13;6.30;;;5.70;;
30378;SDS011;17168;49.164;9.060;2022-08-19T13:59:45;6.50;;;5.45;;
30378;SDS011;17168;49.164;9.060;2022-08-19T14:02:18;6.90;;;5.23;;
30378;SDS011;17168;49.164;9.060;2022-08-19T14:04:50;7.50;;;5.60;;
30378;SDS011;17168;49.164;9.060;2022-08-19T14:07:22;18.58;;;6.57;;
30378;SDS011;17168;49.164;9.060;2022-08-19T14:09:54;7.72;;;6.35;;
30378;SDS011;17168;49.164;9.060;2022-08-19T17:11:56;16.45;;;7.10;;
30378;SDS011;17168;49.164;9.060;2022-08-19T17:14:28;10.15;;;7.43;;
30378;SDS011;17168;49.164;9.060;2022-08-19T17:17:00;9.10;;;7.13;;
30378;SDS011;17168;49.164;9.060;2022-08-19T17:19:32;12.10;;;7.80;;
30378;SDS011;17168;49.164;9.060;2022-08-19T17:22:05;10.82;;;7.18;;
30378;SDS011;17168;49.164;9.060;2022-08-19T17:24:38;12.73;;;8.38;;
30378;SDS011;17168;49.164;9.060;2022-08-19T17:27:11;9.95;;;7.85;;
30378;SDS011;17168;49.164;9.060;2022-08-19T17:29:42;10.50;;;8.60;;
30378;SDS011;17168;49.164;9.060;2022-08-19T17:32:17;13.35;;;9.00;;
30378;SDS011;17168;49.164;9.060;2022-08-19T17:34:55;16.83;;;11.95;;
30378;SDS011;17168;49.164;9.060;2022-08-19T17:37:28;11.10;;;9.43;;
30378;SDS011;17168;49.164;9.060;2022-08-19T17:42:32;13.88;;;9.90;;
30378;SDS011;17168;49.164;9.060;2022-08-19T17:45:06;11.98;;;9.63;;
30378;SDS011;17168;49.164;9.060;2022-08-19T17:47:39;10.45;;;9.32;;
30378;SDS011;17168;49.164;9.060;2022-08-19T17:50:11;10.43;;;9.32;;
30378;SDS011;17168;49.164;9.060;2022-08-19T17:52:44;11.07;;;9.32;;
30378;SDS011;17168;49.164;9.060;2022-08-19T17:57:48;12.48;;;9.95;;
30378;SDS011;17168;49.164;9.060;2022-08-19T18:00:20;12.13;;;9.75;;
30378;SDS011;17168;49.164;9.060;2022-08-19T18:02:55;12.35;;;9.82;;
30378;SDS011;17168;49.164;9.060;2022-08-19T18:05:30;13.15;;;9.23;;
30378;SDS011;17168;49.164;9.060;2022-08-19T18:08:05;11.50;;;9.57;;
30378;SDS011;17168;49.164;9.060;2022-08-19T18:10:39;10.88;;;9.70;;
30378;SDS011;17168;49.164;9.060;2022-08-19T18:18:20;12.90;;;9.77;;
30378;SDS011;17168;49.164;9.060;2022-08-19T18:20:52;13.32;;;9.90;;
30378;SDS011;17168;49.164;9.060;2022-08-19T18:23:25;13.02;;;10.00;;
30378;SDS011;17168;49.164;9.060;2022-08-19T18:50:59;15.32;;;10.30;;
30378;SDS011;17168;49.164;9.060;2022-08-19T18:53:32;13.15;;;9.98;;
30378;SDS011;17168;49.164;9.060;2022-08-19T18:56:10;11.32;;;10.05;;
30378;SDS011;17168;49.164;9.060;2022-08-19T18:58:44;13.75;;;10.88;;
30378;SDS011;17168;49.164;9.060;2022-08-19T19:01:17;10.60;;;9.40;;
30378;SDS011;17168;49.164;9.060;2022-08-19T19:03:51;10.35;;;9.10;;
30378;SDS011;17168;49.164;9.060;2022-08-19T19:06:26;11.23;;;9.15;;
30378;SDS011;17168;49.164;9.060;2022-08-19T19:09:00;10.13;;;9.13;;
30378;SDS011;17168;49.164;9.060;2022-08-19T19:11:34;12.60;;;9.48;;
30378;SDS011;17168;49.164;9.060;2022-08-19T19:14:07;10.93;;;9.50;;
30378;SDS011;17168;49.164;9.060;2022-08-19T19:16:59;10.30;;;9.25;;
30378;SDS011;17168;49.164;9.060;2022-08-19T19:19:33;12.15;;;9.10;;
30378;SDS011;17168;49.164;9.060;2022-08-19T19:22:05;9.80;;;8.80;;
30378;SDS011;17168;49.164;9.060;2022-08-19T19:24:37;9.87;;;8.53;;
30378;SDS011;17168;49.164;9.060;2022-08-19T19:27:12;9.25;;;8.35;;
30378;SDS011;17168;49.164;9.060;2022-08-19T19:29:46;11.43;;;9.65;;
30378;SDS011;17168;49.164;9.060;2022-08-19T19:32:23;11.10;;;8.55;;
30378;SDS011;17168;49.164;9.060;2022-08-19T19:34:57;9.45;;;8.10;;
30378;SDS011;17168;49.164;9.060;2022-08-19T19:37:29;9.63;;;8.57;;
30378;SDS011;17168;49.164;9.060;2022-08-19T19:40:01;8.90;;;8.00;;
30378;SDS011;17168;49.164;9.060;2022-08-19T19:42:35;9.07;;;8.18;;
30378;SDS011;17168;49.164;9.060;2022-08-19T19:45:08;12.20;;;8.75;;
30378;SDS011;17168;49.164;9.060;2022-08-19T19:47:40;9.75;;;8.75;;
30378;SDS011;17168;49.164;9.060;2022-08-19T19:50:14;9.55;;;8.45;;
30378;SDS011;17168;49.164;9.060;2022-08-19T19:52:46;10.73;;;9.07;;
30378;SDS011;17168;49.164;9.060;2022-08-19T19:55:18;10.88;;;9.55;;
30378;SDS011;17168;49.164;9.060;2022-08-19T19:57:52;15.03;;;11.07;;
30378;SDS011;17168;49.164;9.060;2022-08-19T20:00:24;28.88;;;15.18;;
30378;SDS011;17168;49.164;9.060;2022-08-19T20:02:56;10.75;;;9.48;;
30378;SDS011;17168;49.164;9.060;2022-08-19T20:05:28;9.60;;;8.63;;
30378;SDS011;17168;49.164;9.060;2022-08-19T20:08:00;11.93;;;9.27;;
30378;SDS011;17168;49.164;9.060;2022-08-19T20:10:50;11.85;;;9.07;;
30378;SDS011;17168;49.164;9.060;2022-08-19T20:13:23;10.60;;;8.88;;
30378;SDS011;17168;49.164;9.060;2022-08-19T20:18:27;9.80;;;8.85;;
30378;SDS011;17168;49.164;9.060;2022-08-19T20:20:59;10.20;;;9.20;;
30378;SDS011;17168;49.164;9.060;2022-08-19T20:23:31;9.32;;;8.35;;
30378;SDS011;17168;49.164;9.060;2022-08-19T20:26:03;11.65;;;10.55;;
30378;SDS011;17168;49.164;9.060;2022-08-19T20:28:43;11.75;;;9.50;;
30378;SDS011;17168;49.164;9.060;2022-08-19T20:31:21;12.30;;;8.82;;
30378;SDS011;17168;49.164;9.060;2022-08-19T20:33:59;10.70;;;9.05;;
30378;SDS011;17168;49.164;9.060;2022-08-19T20:36:32;10.32;;;9.15;;
30378;SDS011;17168;49.164;9.060;2022-08-19T20:39:04;10.52;;;9.25;;
30378;SDS011;17168;49.164;9.060;2022-08-19T20:41:37;10.52;;;9.43;;
30378;SDS011;17168;49.164;9.060;2022-08-19T20:44:11;10.35;;;9.30;;
30378;SDS011;17168;49.164;9.060;2022-08-19T20:49:25;10.35;;;9.35;;
30378;SDS011;17168;49.164;9.060;2022-08-19T20:51:58;9.88;;;8.82;;
30378;SDS011;17168;49.164;9.060;2022-08-19T20:54:30;9.43;;;8.50;;
30378;SDS011;17168;49.164;9.060;2022-08-19T20:57:02;9.05;;;7.70;;
30378;SDS011;17168;49.164;9.060;2022-08-19T21:02:08;9.05;;;8.15;;
30378;SDS011;17168;49.164;9.060;2022-08-19T21:04:41;9.20;;;8.30;;
30378;SDS011;17168;49.164;9.060;2022-08-19T21:07:13;11.13;;;8.27;;
30378;SDS011;17168;49.164;9.060;2022-08-19T21:09:46;8.68;;;7.88;;
30378;SDS011;17168;49.164;9.060;2022-08-19T21:12:18;10.38;;;8.73;;
30378;SDS011;17168;49.164;9.060;2022-08-19T21:14:51;10.60;;;8.32;;
30378;SDS011;17168;49.164;9.060;2022-08-19T21:17:23;9.65;;;7.97;;
30378;SDS011;17168;49.164;9.060;2022-08-19T21:19:55;8.48;;;7.57;;
30378;SDS011;17168;49.164;9.060;2022-08-19T21:22:27;8.85;;;7.95;;
30378;SDS011;17168;49.164;9.060;2022-08-19T21:24:59;13.93;;;8.45;;
30378;SDS011;17168;49.164;9.060;2022-08-19T21:27:31;9.95;;;8.93;;
30378;SDS011;17168;49.164;9.060;2022-08-19T21:30:05;9.52;;;8.48;;
30378;SDS011;17168;49.164;9.060;2022-08-19T21:32:39;11.70;;;9.18;;
30378;SDS011;17168;49.164;9.060;2022-08-19T21:35:11;9.68;;;8.68;;
30378;SDS011;17168;49.164;9.060;2022-08-19T21:37:42;9.48;;;8.13;;
30378;SDS011;17168;49.164;9.060;2022-08-19T21:40:14;10.57;;;7.85;;
30378;SDS011;17168;49.164;9.060;2022-08-19T21:42:46;9.20;;;8.30;;
30378;SDS011;17168;49.164;9.060;2022-08-19T21:45:20;8.85;;;7.93;;
30378;SDS011;17168;49.164;9.060;2022-08-19T21:47:52;9.18;;;8.15;;
30378;SDS011;17168;49.164;9.060;2022-08-19T21:50:25;8.90;;;8.00;;
30378;SDS011;17168;49.164;9.060;2022-08-19T21:58:02;8.88;;;7.97;;
30378;SDS011;17168;49.164;9.060;2022-08-19T22:00:36;12.40;;;8.15;;
30378;SDS011;17168;49.164;9.060;2022-08-19T22:03:08;13.00;;;9.35;;
30378;SDS011;17168;49.164;9.060;2022-08-19T22:05:40;13.43;;;8.90;;
30378;SDS011;17168;49.164;9.060;2022-08-19T22:10:45;10.13;;;7.70;;
30378;SDS011;17168;49.164;9.060;2022-08-19T22:13:19;11.20;;;8.40;;
30378;SDS011;17168;49.164;9.060;2022-08-19T22:15:52;9.38;;;7.95;;
30378;SDS011;17168;49.164;9.060;2022-08-19T22:18:25;10.45;;;7.97;;
30378;SDS011;17168;49.164;9.060;2022-08-19T22:33:39;8.52;;;6.43;;
30378;SDS011;17168;49.164;9.060;2022-08-19T22:36:11;6.72;;;6.03;;
30378;SDS011;17168;49.164;9.060;2022-08-19T22:38:44;7.05;;;6.30;;
30378;SDS011;17168;49.164;9.060;2022-08-19T22:41:16;10.38;;;6.60;;
30378;SDS011;17168;49.164;9.060;2022-08-19T22:46:28;8.77;;;6.68;;
30378;SDS011;17168;49.164;9.060;2022-08-19T22:49:04;11.93;;;6.38;;
30378;SDS011;17168;49.164;9.060;2022-08-19T22:51:36;7.72;;;6.90;;
30378;SDS011;17168;49.164;9.060;2022-08-19T22:56:57;7.75;;;6.43;;
30378;SDS011;17168;49.164;9.060;2022-08-19T23:12:10;6.32;;;5.72;;
30378;SDS011;17168;49.164;9.060;2022-08-19T23:14:45;8.85;;;5.28;;
30378;SDS011;17168;49.164;9.060;2022-08-19T23:17:19;7.55;;;5.80;;
30378;SDS011;17168;49.164;9.060;2022-08-19T23:19:51;8.45;;;5.57;;
30378;SDS011;17168;49.164;9.060;2022-08-19T23:24:59;8.73;;;5.80;;
30378;SDS011;17168;49.164;9.060;2022-08-19T23:33:03;6.75;;;5.10;;
30378;SDS011;17168;49.164;9.060;2022-08-19T23:35:42;6.35;;;4.65;;
30378;SDS011;17168;49.164;9.060;2022-08-19T23:38:14;6.20;;;4.47;;
